Terminal Aerodrome Forecast
Issued by NWS

Current Version | Previous Version | Text Only | Print | Product List | Glossary Off
Versions: 1 2 3 4 5 6 7 8 9 10 11 12 13 14 15 16 17 18 19 20 21 22 23 24 25

000
FTUS41 KRLX 291700
TAFCKB
TAF
KCKB 291732Z 2918/3018 27003KT P6SM FEW035
     FM300800 00000KT 5SM BR SCT040
     FM301400 00000KT P6SM SCT035
     FM301700 26004KT P6SM SCT250=

USA.gov is the U.S. government's official web portal to all federal, state and local government web resources and services.